Fort Myers Beach, FL

8:32 PM EDT on October 20, 2014 (GMT -0400)
Pearl Street | Change Station
CLOSE
Current Station
Personal Weather Station
Location: Fort Myers Beach, FL
Elevation: 16 ft
Nearby Weather Stations

Elev 16 ft 26.45 °N, 81.95 °W | Updated 0 second ago

Mostly Cloudy
Mostly Cloudy
79.9 °F
Feels Like 82 °F
N
0.0
Wind Variable Wind from WNW
Gusts 0.0 mph

Today
High -- | Low -- °F
--% Chance of Precip.
Yesterday
High -- | Low -- °F
Precip. -- in
7:29 AM 6:54 PM
Waning Crescent, 8% visible
Pressure 29.94 in
Visibility 10.0 miles
Clouds Mostly Cloudy 5000 ft
Heat Index 82 °F
Dew Point 65 °F
Humidity 61%
Rainfall 0.00 in
Snow Depth Not available.
UV 0 out of 12
Pollen 3.60 out of 12
Air Quality Not available.
Flu Activity Local Activity
METAR KFMY 202353Z 00000KT 10SM BKN050 27/19 A2993 RMK AO2 SLP137 T02670194 10311 20267 53003

More Conditions Fewer Conditions

Pressure 29.94 in
Visibility 10.0 miles
Clouds Mostly Cloudy 5000 ft
Heat Index 82 °F
Dew Point 65 °F
Humidity 61%
Rainfall 0.00 in
Snow Depth Not available.
UV 0 out of 12
Pollen 3.60 out of 12
Air Quality Not available.
Flu Activity Local Activity
METAR KFMY 202353Z 00000KT 10SM BKN050 27/19 A2993 RMK AO2 SLP137 T02670194 10311 20267 53003

More Conditions Fewer Conditions

10-Day Weather Forecast

Almanac

Astronomy

Oct. 20, 2014 Rise Set
Actual Time 7:29 AM EDT 6:54 PM EDT
Civil Twilight 7:06 AM EDT 7:18 PM EDT
Nautical Twilight 6:39 AM EDT 7:45 PM EDT
Astronomical Twilight 6:12 AM EDT 8:12 PM EDT
Moon 4:34 AM EDT (10/20) 5:01 PM EDT (10/20)
Length of Visible Light 12h 12m
Length of Day
11h 25m
Tomorrow will be 1m 27s shorter.
Waning Crescent, 8% of the Moon is Illuminated
Today
Waning Crescent
Oct 23
New
Oct 30
First Quarter
Nov 6
Full
Nov 14
Last Quarter

Today's Extremes

State Highs State Lows

Community

WunderPhotos

Upload Photos

1,763,566 photos uploaded!

Nearby

Snow Depth

Station Depth Elevation
No new snow has been reported.

Earthquake Activity

City Distance Mag. Time & Date
No recent earthquake activity has been reported nearby.
Minimum magnitude displayed is 2.5.

Coastal Water Temperatures

Place Temperature
Fort Myers, FL 84.0 °F
Naples, FL 84.9 °F

Nearby Weather Stations